Time;durP1;ratioP1;P1;durP2;ratioP2;P2;SDS_P1;SDS_P2;PMS_P1;PMS_P2;Temp;Humidity;BMP_temperature;BMP_pressure;BME280_temperature;BME280_humidity;BME280_pressure;Samples;Min_cycle;Max_cycle;Signal;HPM_P1;HPM_P2
2024/01/07 00:00:20;;;;;;;33.08;20.58;;;;;;;;;;5032293;28;20033;-76
2024/01/07 00:02:47;;;;;;;33.28;20.83;;;;;;;;;;5028535;28;20029;-76
2024/01/07 00:05:13;;;;;;;31.30;20.20;;;;;;;;;;5030150;28;20224;-75
2024/01/07 00:07:39;;;;;;;34.17;20.67;;;;;;;;;;5029423;28;20084;-75
2024/01/07 00:10:05;;;;;;;33.30;20.00;;;;;;;;;;5030461;28;20041;-76
2024/01/07 00:12:31;;;;;;;33.08;20.98;;;;;;;;;;5030361;28;20124;-75
2024/01/07 00:14:57;;;;;;;35.13;21.88;;;;;;;;;;5035021;28;20029;-76
2024/01/07 00:17:24;;;;;;;34.00;20.30;;;;;;;;;;5029230;28;20029;-75
2024/01/07 00:19:50;;;;;;;36.22;21.90;;;;;;;;;;5029031;28;20034;-76
2024/01/07 00:22:17;;;;;;;36.13;21.30;;;;;;;;;;5030887;28;20494;-75
2024/01/07 00:24:43;;;;;;;40.63;22.88;;;;;;;;;;5029970;28;20048;-75
2024/01/07 00:27:09;;;;;;;36.45;21.83;;;;;;;;;;5030032;28;20149;-75
2024/01/07 00:29:36;;;;;;;41.08;23.10;;;;;;;;;;5028732;28;20040;-75
2024/01/07 00:32:02;;;;;;;41.45;23.65;;;;;;;;;;5029687;28;20521;-75
2024/01/07 00:34:29;;;;;;;37.70;23.98;;;;;;;;;;5030237;28;20025;-76
2024/01/07 00:36:55;;;;;;;39.63;23.92;;;;;;;;;;5030709;28;20033;-75
2024/01/07 00:39:21;;;;;;;40.63;24.17;;;;;;;;;;5027679;28;20088;-77
2024/01/07 00:41:47;;;;;;;40.05;24.17;;;;;;;;;;5026237;28;20099;-76
2024/01/07 00:44:14;;;;;;;40.55;24.58;;;;;;;;;;5029523;28;20113;-75
2024/01/07 00:46:40;;;;;;;43.10;25.05;;;;;;;;;;5029565;28;20067;-76
2024/01/07 00:49:06;;;;;;;37.53;24.52;;;;;;;;;;5025437;28;20014;-76
2024/01/07 00:51:32;;;;;;;40.58;24.40;;;;;;;;;;5045091;28;20025;-75
2024/01/07 00:53:59;;;;;;;40.20;25.27;;;;;;;;;;5028240;28;20517;-76
2024/01/07 00:56:28;;;;;;;45.53;25.77;;;;;;;;;;5054419;28;20402;-75
2024/01/07 00:58:55;;;;;;;43.72;26.02;;;;;;;;;;5034948;28;20091;-75
2024/01/07 01:01:21;;;;;;;45.90;26.00;;;;;;;;;;5028109;28;20116;-75
2024/01/07 01:03:47;;;;;;;44.17;25.33;;;;;;;;;;5033146;28;20045;-75
2024/01/07 01:06:13;;;;;;;41.33;24.65;;;;;;;;;;5028801;28;20033;-75
2024/01/07 01:08:40;;;;;;;43.83;25.83;;;;;;;;;;5029514;28;20285;-75
2024/01/07 01:11:09;;;;;;;45.08;25.48;;;;;;;;;;5031462;28;20477;-75
2024/01/07 01:13:35;;;;;;;35.83;22.20;;;;;;;;;;5030270;28;20187;-75
2024/01/07 01:16:02;;;;;;;40.17;23.88;;;;;;;;;;5025705;28;20134;-75
2024/01/07 01:18:28;;;;;;;40.20;24.65;;;;;;;;;;5029038;28;20041;-75
2024/01/07 01:20:56;;;;;;;38.53;23.83;;;;;;;;;;5024669;28;20519;-76
2024/01/07 01:23:22;;;;;;;37.47;23.33;;;;;;;;;;5030020;28;20037;-76
2024/01/07 01:25:49;;;;;;;40.42;25.10;;;;;;;;;;5025230;28;20041;-76
2024/01/07 01:28:15;;;;;;;41.17;24.13;;;;;;;;;;5025539;28;20025;-75
2024/01/07 01:30:41;;;;;;;39.88;23.98;;;;;;;;;;5027024;28;20028;-76
2024/01/07 01:33:08;;;;;;;38.58;23.17;;;;;;;;;;5029783;28;20026;-75
2024/01/07 01:35:34;;;;;;;37.75;22.02;;;;;;;;;;5027156;28;20128;-76
2024/01/07 01:38:00;;;;;;;39.80;23.63;;;;;;;;;;5058388;28;20037;-76
2024/01/07 01:40:26;;;;;;;39.10;21.95;;;;;;;;;;5026306;28;20419;-76
2024/01/07 01:42:52;;;;;;;36.65;22.75;;;;;;;;;;5030234;28;20025;-76
2024/01/07 01:45:19;;;;;;;37.40;22.42;;;;;;;;;;5030200;28;21040;-76
2024/01/07 01:47:46;;;;;;;36.90;22.00;;;;;;;;;;5025308;28;20120;-74
2024/01/07 01:50:13;;;;;;;38.05;22.80;;;;;;;;;;5028151;28;20021;-76
2024/01/07 01:52:39;;;;;;;39.08;23.15;;;;;;;;;;5027755;28;20036;-76
2024/01/07 01:55:05;;;;;;;37.85;23.73;;;;;;;;;;5026124;28;20064;-75
2024/01/07 01:57:36;;;;;;;38.60;23.00;;;;;;;;;;5025406;28;20045;-75
2024/01/07 02:00:04;;;;;;;;;;;;;;;;;;5031110;28;20029;-74
2024/01/07 02:02:34;;;;;;;39.35;21.90;;;;;;;;;;5029165;28;19913;-75
2024/01/07 02:05:02;;;;;;;39.15;21.92;;;;;;;;;;5028168;28;20033;-75
2024/01/07 02:07:30;;;;;;;38.60;23.35;;;;;;;;;;5028141;28;20072;-75
2024/01/07 02:09:56;;;;;;;37.45;22.55;;;;;;;;;;5022422;28;20030;-76
2024/01/07 02:12:22;;;;;;;41.65;24.08;;;;;;;;;;5022581;28;20021;-76
2024/01/07 02:14:48;;;;;;;41.55;23.83;;;;;;;;;;5039883;28;20048;-75
2024/01/07 02:17:15;;;;;;;42.65;24.92;;;;;;;;;;5041457;28;20120;-75
2024/01/07 02:19:41;;;;;;;42.97;24.17;;;;;;;;;;5026924;28;20025;-75
2024/01/07 02:22:07;;;;;;;44.72;24.10;;;;;;;;;;5027125;28;20095;-76
2024/01/07 02:24:33;;;;;;;43.50;23.88;;;;;;;;;;5026624;28;20111;-76
2024/01/07 02:27:02;;;;;;;49.40;25.92;;;;;;;;;;5028661;28;20099;-76
2024/01/07 02:29:29;;;;;;;52.50;27.73;;;;;;;;;;5027594;28;20029;-76
2024/01/07 02:31:55;;;;;;;53.10;28.40;;;;;;;;;;5025300;28;20018;-76
2024/01/07 02:34:21;;;;;;;55.28;28.50;;;;;;;;;;5024083;28;20037;-75
2024/01/07 02:36:47;;;;;;;52.63;29.40;;;;;;;;;;5040957;28;20043;-75
2024/01/07 02:39:14;;;;;;;54.85;28.85;;;;;;;;;;5026283;28;20056;-75
2024/01/07 02:41:40;;;;;;;62.63;31.10;;;;;;;;;;5031337;28;20140;-75
2024/01/07 02:44:06;;;;;;;58.97;29.10;;;;;;;;;;5029031;28;20524;-75
2024/01/07 02:46:32;;;;;;;58.58;30.75;;;;;;;;;;5057970;28;20129;-75
2024/01/07 02:48:58;;;;;;;52.97;27.98;;;;;;;;;;5027686;28;20033;-74
2024/01/07 02:51:24;;;;;;;53.65;28.33;;;;;;;;;;5025830;28;20072;-75
2024/01/07 02:53:50;;;;;;;52.20;27.27;;;;;;;;;;5026063;28;20461;-75
2024/01/07 02:56:16;;;;;;;54.40;28.05;;;;;;;;;;5029305;28;20568;-75
2024/01/07 02:58:42;;;;;;;55.85;30.08;;;;;;;;;;5027628;28;20674;-75
2024/01/07 03:01:12;;;;;;;56.67;30.10;;;;;;;;;;5026649;28;20129;-75
2024/01/07 03:03:38;;;;;;;56.58;30.08;;;;;;;;;;5024772;28;20065;-75
2024/01/07 03:06:05;;;;;;;51.17;28.55;;;;;;;;;;5031251;28;20044;-76
2024/01/07 03:08:31;;;;;;;48.78;27.63;;;;;;;;;;5030621;28;20038;-76
2024/01/07 03:10:57;;;;;;;50.30;27.85;;;;;;;;;;5025794;28;20041;-76
2024/01/07 03:13:23;;;;;;;55.20;29.02;;;;;;;;;;5032764;28;20026;-75
2024/01/07 03:15:49;;;;;;;50.47;28.95;;;;;;;;;;5029666;28;20274;-76
2024/01/07 03:18:15;;;;;;;53.08;28.02;;;;;;;;;;5029816;28;20025;-75
2024/01/07 03:20:41;;;;;;;50.70;27.73;;;;;;;;;;5027637;28;20388;-75
2024/01/07 03:23:08;;;;;;;50.03;28.35;;;;;;;;;;5032029;28;20037;-75
2024/01/07 03:25:34;;;;;;;52.13;29.88;;;;;;;;;;5029759;28;20076;-75
2024/01/07 03:28:00;;;;;;;53.38;28.13;;;;;;;;;;5031831;28;20041;-76
2024/01/07 03:30:26;;;;;;;47.03;27.23;;;;;;;;;;5028409;28;20391;-76
2024/01/07 03:32:52;;;;;;;49.95;27.08;;;;;;;;;;5028724;28;20030;-75
2024/01/07 03:35:18;;;;;;;52.28;27.90;;;;;;;;;;5031214;28;21236;-76
2024/01/07 03:37:44;;;;;;;51.50;28.92;;;;;;;;;;5031048;28;20033;-75
2024/01/07 03:40:14;;;;;;;51.35;27.95;;;;;;;;;;5030549;28;20111;-76
2024/01/07 03:42:40;;;;;;;48.90;28.10;;;;;;;;;;5028436;28;20042;-75
2024/01/07 03:45:06;;;;;;;51.13;28.13;;;;;;;;;;5032317;28;20045;-76
2024/01/07 03:47:32;;;;;;;50.67;27.65;;;;;;;;;;5028440;28;20048;-75
2024/01/07 03:49:59;;;;;;;48.47;27.02;;;;;;;;;;5028920;28;20034;-74
2024/01/07 03:52:25;;;;;;;51.05;27.63;;;;;;;;;;5028495;28;20061;-75
2024/01/07 03:54:51;;;;;;;46.28;26.50;;;;;;;;;;5031067;28;20091;-76
2024/01/07 03:57:17;;;;;;;49.78;27.60;;;;;;;;;;5030696;28;20038;-76
2024/01/07 03:59:43;;;;;;;52.55;28.63;;;;;;;;;;5032433;28;20028;-76
2024/01/07 04:02:09;;;;;;;49.85;28.02;;;;;;;;;;5029093;28;20057;-77
2024/01/07 04:04:35;;;;;;;53.75;28.33;;;;;;;;;;5032913;28;20099;-77
2024/01/07 04:07:01;;;;;;;50.10;28.08;;;;;;;;;;5029970;28;20046;-76
2024/01/07 04:09:27;;;;;;;53.08;29.02;;;;;;;;;;5030006;28;20060;-75
2024/01/07 04:11:54;;;;;;;50.00;28.05;;;;;;;;;;5031186;28;20117;-75
2024/01/07 04:14:20;;;;;;;55.58;30.85;;;;;;;;;;5060459;28;20057;-75
2024/01/07 04:16:46;;;;;;;55.08;29.25;;;;;;;;;;5031456;28;20084;-76
2024/01/07 04:19:12;;;;;;;56.45;27.77;;;;;;;;;;5030397;28;20029;-75
2024/01/07 04:21:38;;;;;;;57.90;31.48;;;;;;;;;;5031948;28;20037;-75
2024/01/07 04:24:05;;;;;;;60.47;31.88;;;;;;;;;;5030449;28;20045;-75
2024/01/07 04:26:31;;;;;;;60.88;30.90;;;;;;;;;;5029613;28;20033;-75
2024/01/07 04:28:57;;;;;;;58.17;30.90;;;;;;;;;;5028957;28;20026;-75
2024/01/07 04:31:23;;;;;;;61.03;30.85;;;;;;;;;;5028383;28;20022;-76
2024/01/07 04:33:49;;;;;;;58.15;31.58;;;;;;;;;;5031122;28;20068;-76
2024/01/07 04:36:15;;;;;;;57.70;30.80;;;;;;;;;;5024998;28;20030;-74
2024/01/07 04:38:41;;;;;;;55.53;30.58;;;;;;;;;;5028589;28;20104;-75
2024/01/07 04:41:08;;;;;;;56.53;30.40;;;;;;;;;;5010692;28;20578;-75
2024/01/07 04:43:35;;;;;;;56.03;30.67;;;;;;;;;;5007591;28;20038;-75
2024/01/07 04:46:01;;;;;;;49.35;29.00;;;;;;;;;;5007517;28;20064;-75
2024/01/07 04:48:27;;;;;;;53.83;28.63;;;;;;;;;;5004977;28;20069;-75
2024/01/07 04:50:53;;;;;;;51.60;29.00;;;;;;;;;;5009851;28;20033;-75
2024/01/07 04:53:19;;;;;;;50.33;28.13;;;;;;;;;;5020447;28;20033;-74
2024/01/07 04:55:46;;;;;;;46.63;26.90;;;;;;;;;;5006439;28;20038;-76
2024/01/07 04:58:12;;;;;;;47.90;27.23;;;;;;;;;;5007329;28;20064;-75
2024/01/07 05:00:38;;;;;;;43.95;25.10;;;;;;;;;;5005433;28;20511;-75
2024/01/07 05:03:04;;;;;;;49.78;26.77;;;;;;;;;;5008078;28;20041;-75
2024/01/07 05:05:30;;;;;;;43.60;25.10;;;;;;;;;;5007659;28;20038;-75
2024/01/07 05:07:59;;;;;;;42.70;23.90;;;;;;;;;;5005157;28;20036;-74
2024/01/07 05:10:25;;;;;;;44.60;24.85;;;;;;;;;;5008823;28;20021;-75
2024/01/07 05:12:51;;;;;;;41.13;23.75;;;;;;;;;;5005139;28;20025;-74
2024/01/07 05:15:18;;;;;;;40.67;23.88;;;;;;;;;;5006079;28;20112;-78
2024/01/07 05:17:44;;;;;;;43.55;23.85;;;;;;;;;;5004893;28;20030;-74
2024/01/07 05:20:10;;;;;;;42.17;23.15;;;;;;;;;;5008540;28;20026;-75
2024/01/07 05:22:36;;;;;;;39.97;23.08;;;;;;;;;;5001262;28;20018;-76
2024/01/07 05:25:03;;;;;;;39.92;23.08;;;;;;;;;;5008328;28;20036;-76
2024/01/07 05:27:29;;;;;;;38.72;22.90;;;;;;;;;;5003729;28;20495;-75
2024/01/07 05:29:55;;;;;;;39.58;23.05;;;;;;;;;;5009172;28;20518;-75
2024/01/07 05:32:21;;;;;;;41.05;22.83;;;;;;;;;;5008143;28;20410;-75
2024/01/07 05:34:47;;;;;;;40.00;23.60;;;;;;;;;;5011159;28;20555;-76
2024/01/07 05:37:13;;;;;;;42.08;23.60;;;;;;;;;;5003738;28;20065;-75
2024/01/07 05:39:39;;;;;;;43.42;23.92;;;;;;;;;;5016566;28;20057;-75
2024/01/07 05:42:06;;;;;;;42.78;24.65;;;;;;;;;;5028336;28;20221;-75
2024/01/07 05:44:32;;;;;;;44.95;25.40;;;;;;;;;;5030182;28;20037;-75
2024/01/07 05:46:58;;;;;;;42.13;23.80;;;;;;;;;;5026611;28;20123;-75
2024/01/07 05:49:24;;;;;;;43.95;24.98;;;;;;;;;;5027665;28;20391;-75
2024/01/07 05:51:50;;;;;;;44.55;25.20;;;;;;;;;;5026995;28;20033;-75
2024/01/07 05:54:16;;;;;;;43.35;24.60;;;;;;;;;;5027562;28;20021;-75
2024/01/07 05:56:42;;;;;;;44.90;25.83;;;;;;;;;;5028470;28;20396;-76
2024/01/07 05:59:09;;;;;;;43.85;26.15;;;;;;;;;;5031960;28;20039;-75
2024/01/07 06:01:35;;;;;;;40.58;23.55;;;;;;;;;;5028759;28;20055;-74
2024/01/07 06:04:01;;;;;;;46.65;25.98;;;;;;;;;;5025660;28;20030;-75
2024/01/07 06:06:27;;;;;;;43.58;26.13;;;;;;;;;;5028530;28;20041;-75
2024/01/07 06:08:54;;;;;;;43.83;25.30;;;;;;;;;;5029373;28;20025;-74
2024/01/07 06:11:20;;;;;;;46.08;26.88;;;;;;;;;;5025716;28;20060;-75
2024/01/07 06:13:46;;;;;;;44.83;25.67;;;;;;;;;;5027605;28;20026;-78
2024/01/07 06:16:13;;;;;;;45.80;26.23;;;;;;;;;;5027720;28;20274;-76
2024/01/07 06:18:39;;;;;;;45.08;25.88;;;;;;;;;;5023777;28;20455;-74
2024/01/07 06:21:05;;;;;;;44.70;26.23;;;;;;;;;;5028012;28;20120;-75
2024/01/07 06:23:35;;;;;;;45.33;25.02;;;;;;;;;;5026674;28;20041;-75
2024/01/07 06:26:03;;;;;;;43.80;23.90;;;;;;;;;;5024910;28;20570;-75
2024/01/07 06:28:29;;;;;;;42.03;24.77;;;;;;;;;;5025484;28;20273;-75
2024/01/07 06:30:56;;;;;;;41.17;25.30;;;;;;;;;;5026596;28;20422;-75
2024/01/07 06:33:22;;;;;;;40.85;23.85;;;;;;;;;;5027127;28;20119;-75
2024/01/07 06:35:48;;;;;;;41.78;23.90;;;;;;;;;;5029066;28;20033;-75
2024/01/07 06:38:15;;;;;;;36.65;22.50;;;;;;;;;;5024665;28;20041;-75
2024/01/07 06:40:41;;;;;;;36.70;23.00;;;;;;;;;;5027654;28;20070;-76
2024/01/07 06:43:08;;;;;;;35.40;21.48;;;;;;;;;;5025918;28;20072;-76
2024/01/07 06:45:34;;;;;;;36.72;22.60;;;;;;;;;;5027227;28;20499;-76
2024/01/07 06:48:00;;;;;;;37.10;20.98;;;;;;;;;;5024131;28;20037;-75
2024/01/07 06:50:27;;;;;;;37.33;22.77;;;;;;;;;;5026509;28;20033;-75
2024/01/07 06:52:53;;;;;;;34.72;21.52;;;;;;;;;;5028877;28;20407;-75
2024/01/07 06:55:19;;;;;;;33.33;20.55;;;;;;;;;;5029287;28;20037;-75
2024/01/07 06:57:45;;;;;;;34.80;21.83;;;;;;;;;;5028262;28;20034;-74
2024/01/07 07:00:12;;;;;;;35.88;21.48;;;;;;;;;;5028687;28;20117;-74
2024/01/07 07:02:38;;;;;;;35.55;20.00;;;;;;;;;;5023522;28;20095;-74
2024/01/07 07:05:04;;;;;;;34.90;20.25;;;;;;;;;;5027231;28;20036;-75
2024/01/07 07:07:30;;;;;;;34.33;21.25;;;;;;;;;;5024974;28;20131;-74
2024/01/07 07:09:56;;;;;;;35.10;21.25;;;;;;;;;;5026207;28;20379;-76
2024/01/07 07:12:22;;;;;;;36.17;22.13;;;;;;;;;;5023992;28;20036;-76
2024/01/07 07:14:49;;;;;;;40.63;22.70;;;;;;;;;;5027927;28;20053;-75
2024/01/07 07:17:15;;;;;;;34.17;20.30;;;;;;;;;;5027655;28;20120;-75
2024/01/07 07:19:41;;;;;;;37.75;22.55;;;;;;;;;;5028261;28;20047;-76
2024/01/07 07:22:08;;;;;;;40.03;24.27;;;;;;;;;;5026926;28;20112;-76
2024/01/07 07:24:34;;;;;;;41.75;23.50;;;;;;;;;;5029814;28;20048;-75
2024/01/07 07:27:00;;;;;;;34.42;20.27;;;;;;;;;;5025674;28;20034;-75
2024/01/07 07:29:26;;;;;;;36.67;23.13;;;;;;;;;;5023161;28;20032;-75
2024/01/07 07:31:52;;;;;;;38.55;22.15;;;;;;;;;;5024393;28;20446;-76
2024/01/07 07:34:19;;;;;;;37.97;23.00;;;;;;;;;;5026201;28;20021;-75
2024/01/07 07:36:45;;;;;;;41.08;23.98;;;;;;;;;;5025816;28;20030;-76
2024/01/07 07:39:13;;;;;;;36.88;20.58;;;;;;;;;;5025690;28;20057;-75
2024/01/07 07:41:39;;;;;;;32.67;19.92;;;;;;;;;;5028128;28;20072;-76
2024/01/07 07:44:07;;;;;;;33.13;19.85;;;;;;;;;;5026614;28;20033;-76
2024/01/07 07:46:33;;;;;;;33.88;20.92;;;;;;;;;;5027730;28;20056;-76
2024/01/07 07:49:00;;;;;;;33.00;20.20;;;;;;;;;;5023662;28;20022;-75
2024/01/07 07:51:28;;;;;;;33.47;20.50;;;;;;;;;;5032153;28;20040;-75
2024/01/07 07:53:54;;;;;;;32.97;18.45;;;;;;;;;;5031494;28;20038;-75
2024/01/07 07:56:20;;;;;;;35.30;20.35;;;;;;;;;;5030828;28;20506;-74
2024/01/07 07:58:46;;;;;;;28.90;18.75;;;;;;;;;;5027940;28;20064;-75
2024/01/07 08:01:12;;;;;;;32.60;19.30;;;;;;;;;;5029862;28;20033;-76
2024/01/07 08:03:38;;;;;;;31.77;18.55;;;;;;;;;;5034049;28;20076;-76
2024/01/07 08:06:05;;;;;;;29.83;18.10;;;;;;;;;;5031797;28;20042;-74
2024/01/07 08:08:32;;;;;;;34.22;22.25;;;;;;;;;;5023728;28;20146;-75
2024/01/07 08:10:58;;;;;;;35.97;20.90;;;;;;;;;;5030550;28;20413;-75
2024/01/07 08:13:24;;;;;;;35.97;21.10;;;;;;;;;;5025995;28;20041;-75
2024/01/07 08:15:50;;;;;;;31.10;19.70;;;;;;;;;;5032832;28;20123;-74
2024/01/07 08:18:17;;;;;;;33.50;21.52;;;;;;;;;;5027749;28;20035;-75
2024/01/07 08:20:43;;;;;;;31.05;19.75;;;;;;;;;;5036428;28;20052;-76
2024/01/07 08:23:10;;;;;;;34.45;19.55;;;;;;;;;;5030994;28;20443;-75
2024/01/07 08:25:36;;;;;;;29.17;17.48;;;;;;;;;;5031930;28;20091;-76
2024/01/07 08:28:02;;;;;;;31.63;19.30;;;;;;;;;;5029442;28;20108;-75
2024/01/07 08:30:28;;;;;;;24.60;17.42;;;;;;;;;;5028683;28;20089;-74
2024/01/07 08:32:54;;;;;;;27.00;17.67;;;;;;;;;;5029518;28;20033;-75
2024/01/07 08:35:21;;;;;;;26.90;17.25;;;;;;;;;;5023434;28;20029;-75
2024/01/07 08:37:48;;;;;;;27.63;17.27;;;;;;;;;;5023696;28;20033;-75
2024/01/07 08:40:14;;;;;;;28.02;17.25;;;;;;;;;;5029656;28;20430;-74
2024/01/07 08:42:40;;;;;;;31.75;17.38;;;;;;;;;;5032427;28;20491;-75
2024/01/07 08:45:07;;;;;;;24.58;15.68;;;;;;;;;;5027704;28;20033;-76
2024/01/07 08:47:34;;;;;;;27.88;16.92;;;;;;;;;;5030267;28;20553;-76
2024/01/07 08:50:01;;;;;;;66.18;32.97;;;;;;;;;;5029005;28;20013;-76
2024/01/07 08:52:27;;;;;;;73.68;32.83;;;;;;;;;;5028369;28;20026;-75
2024/01/07 08:54:54;;;;;;;49.33;24.10;;;;;;;;;;5025445;28;20076;-75
2024/01/07 08:57:21;;;;;;;50.45;24.58;;;;;;;;;;5029295;28;20504;-75
2024/01/07 08:59:47;;;;;;;70.35;31.02;;;;;;;;;;5023412;28;20045;-76
2024/01/07 09:02:13;;;;;;;78.30;34.03;;;;;;;;;;5026566;28;20049;-75
2024/01/07 09:04:40;;;;;;;47.55;24.08;;;;;;;;;;5024938;28;20033;-75
2024/01/07 09:07:06;;;;;;;48.08;26.80;;;;;;;;;;5028565;28;20029;-76
2024/01/07 09:09:33;;;;;;;31.38;18.83;;;;;;;;;;5027682;28;20087;-76
2024/01/07 09:12:00;;;;;;;26.67;17.30;;;;;;;;;;5029695;28;20017;-76
2024/01/07 09:14:26;;;;;;;27.52;17.38;;;;;;;;;;5030079;28;20075;-76
2024/01/07 09:16:53;;;;;;;26.55;16.00;;;;;;;;;;5031426;28;20398;-75
2024/01/07 09:19:19;;;;;;;28.42;19.02;;;;;;;;;;5029104;28;20041;-75
2024/01/07 09:21:45;;;;;;;29.35;17.98;;;;;;;;;;5027042;28;20403;-75
2024/01/07 09:24:11;;;;;;;28.52;16.33;;;;;;;;;;5027323;28;20117;-75
2024/01/07 09:26:38;;;;;;;25.55;16.65;;;;;;;;;;5010584;28;20096;-75
2024/01/07 09:29:04;;;;;;;22.65;15.35;;;;;;;;;;5027906;28;20061;-74
2024/01/07 09:31:30;;;;;;;26.27;16.15;;;;;;;;;;5026437;28;20394;-75
2024/01/07 09:33:56;;;;;;;25.13;14.05;;;;;;;;;;5027845;28;20025;-75
2024/01/07 09:36:22;;;;;;;21.52;14.70;;;;;;;;;;5027521;28;20087;-76
2024/01/07 09:38:48;;;;;;;19.85;13.10;;;;;;;;;;5029326;28;20060;-74
2024/01/07 09:41:14;;;;;;;19.20;11.82;;;;;;;;;;5024843;28;20107;-75
2024/01/07 09:43:41;;;;;;;21.42;12.77;;;;;;;;;;5028056;28;20120;-76
2024/01/07 09:46:07;;;;;;;19.27;10.23;;;;;;;;;;5026640;28;20042;-75
2024/01/07 09:48:33;;;;;;;19.08;11.73;;;;;;;;;;5028265;28;20412;-74
2024/01/07 09:51:01;;;;;;;17.38;11.27;;;;;;;;;;5024093;28;20037;-76
2024/01/07 09:53:31;;;;;;;17.52;10.50;;;;;;;;;;5028399;28;20029;-76
2024/01/07 09:56:04;;;;;;;16.40;9.30;;;;;;;;;;5029071;28;20033;-77
2024/01/07 09:58:30;;;;;;;19.90;10.95;;;;;;;;;;5012306;28;20513;-76
2024/01/07 10:00:56;;;;;;;18.75;9.57;;;;;;;;;;5027784;28;20395;-75
2024/01/07 10:03:22;;;;;;;16.80;9.75;;;;;;;;;;5028029;28;20177;-76
2024/01/07 10:05:49;;;;;;;14.23;8.75;;;;;;;;;;5026953;28;20145;-74
2024/01/07 10:08:15;;;;;;;16.05;9.13;;;;;;;;;;5027684;28;20076;-76
2024/01/07 10:10:43;;;;;;;17.25;9.25;;;;;;;;;;5028556;28;20129;-74
2024/01/07 10:13:09;;;;;;;14.85;9.35;;;;;;;;;;5025731;28;20026;-75
2024/01/07 10:15:35;;;;;;;17.02;8.95;;;;;;;;;;5027462;28;20048;-76
2024/01/07 10:18:05;;;;;;;16.63;8.75;;;;;;;;;;5022678;28;20552;-75
2024/01/07 10:20:33;;;;;;;13.88;8.32;;;;;;;;;;5029370;28;20116;-74
2024/01/07 10:23:00;;;;;;;16.10;8.23;;;;;;;;;;5028346;28;20026;-75
2024/01/07 10:25:26;;;;;;;15.88;9.38;;;;;;;;;;5026533;28;20051;-76
2024/01/07 10:27:52;;;;;;;18.00;9.20;;;;;;;;;;5025245;28;20494;-75
2024/01/07 10:30:18;;;;;;;13.18;8.32;;;;;;;;;;5026831;28;20372;-74
2024/01/07 10:32:44;;;;;;;14.95;7.35;;;;;;;;;;5025968;28;20566;-75
2024/01/07 10:35:16;;;;;;;19.77;7.97;;;;;;;;;;5026509;28;20474;-74
2024/01/07 10:37:42;;;;;;;11.45;6.53;;;;;;;;;;5028798;28;20033;-75
2024/01/07 10:40:11;;;;;;;13.38;6.80;;;;;;;;;;5026940;28;20045;-75
2024/01/07 10:42:39;;;;;;;11.05;6.72;;;;;;;;;;5027009;28;20040;-75
2024/01/07 10:45:05;;;;;;;10.13;7.00;;;;;;;;;;5025688;28;20042;-75
2024/01/07 10:47:32;;;;;;;10.52;6.72;;;;;;;;;;5027400;28;20560;-75
2024/01/07 10:49:59;;;;;;;12.48;6.85;;;;;;;;;;5028103;28;20029;-75
2024/01/07 10:52:27;;;;;;;11.07;7.10;;;;;;;;;;5025407;28;20041;-74
2024/01/07 10:54:56;;;;;;;12.50;7.47;;;;;;;;;;5030199;28;20112;-74
2024/01/07 10:57:49;;;;;;;9.70;6.95;;;;;;;;;;5023822;28;20033;-74
2024/01/07 11:00:19;;;;;;;10.93;6.40;;;;;;;;;;5021829;28;20120;-73
2024/01/07 11:03:06;;;;;;;10.70;6.67;;;;;;;;;;5023555;28;20065;-73
2024/01/07 11:05:45;;;;;;;10.45;6.70;;;;;;;;;;5024525;28;20111;-74
2024/01/07 11:08:31;;;;;;;12.05;6.28;;;;;;;;;;5025020;28;20026;-74
2024/01/07 11:11:06;;;;;;;11.65;6.25;;;;;;;;;;5025927;28;20064;-76
2024/01/07 11:13:37;;;;;;;13.52;6.80;;;;;;;;;;5021847;28;20040;-75
2024/01/07 11:16:04;;;;;;;8.98;5.38;;;;;;;;;;5027152;28;20057;-76
2024/01/07 11:18:33;;;;;;;8.60;5.28;;;;;;;;;;5031304;28;20044;-75
2024/01/07 11:21:03;;;;;;;9.65;6.28;;;;;;;;;;5026163;28;20037;-76
2024/01/07 11:23:36;;;;;;;10.43;6.45;;;;;;;;;;5023854;28;20584;-76
2024/01/07 11:26:02;;;;;;;13.20;5.70;;;;;;;;;;5028921;28;20426;-75
2024/01/07 11:28:44;;;;;;;11.85;6.35;;;;;;;;;;5023053;28;20076;-75
2024/01/07 11:31:10;;;;;;;10.43;5.80;;;;;;;;;;5027504;28;20063;-75
2024/01/07 11:33:42;;;;;;;7.65;4.78;;;;;;;;;;5029272;28;20076;-76
2024/01/07 11:36:08;;;;;;;7.88;5.25;;;;;;;;;;5031203;28;20375;-76
2024/01/07 11:38:38;;;;;;;12.60;6.47;;;;;;;;;;5029352;28;20040;-76
2024/01/07 11:41:06;;;;;;;8.10;6.00;;;;;;;;;;5028257;28;20080;-76
2024/01/07 11:43:34;;;;;;;8.70;5.30;;;;;;;;;;5031076;28;20064;-76
2024/01/07 11:46:00;;;;;;;9.25;5.43;;;;;;;;;;5025393;28;20446;-77
2024/01/07 11:48:27;;;;;;;12.15;5.93;;;;;;;;;;5029110;28;20041;-76
2024/01/07 11:50:53;;;;;;;10.88;5.07;;;;;;;;;;5031316;28;20446;-77
2024/01/07 11:53:19;;;;;;;7.70;4.53;;;;;;;;;;5030810;28;20061;-76
2024/01/07 11:55:45;;;;;;;7.10;4.70;;;;;;;;;;5027671;28;20393;-77
2024/01/07 11:58:12;;;;;;;7.57;4.38;;;;;;;;;;5030747;28;20033;-76
2024/01/07 12:00:38;;;;;;;6.30;4.22;;;;;;;;;;5035637;28;20068;-75
2024/01/07 12:03:04;;;;;;;6.28;4.30;;;;;;;;;;5032651;28;20446;-75
2024/01/07 12:05:31;;;;;;;6.20;4.18;;;;;;;;;;5031946;28;20076;-76
2024/01/07 12:07:57;;;;;;;7.03;4.38;;;;;;;;;;5031068;28;20119;-76
2024/01/07 12:10:24;;;;;;;7.03;4.40;;;;;;;;;;5030410;28;20439;-75
2024/01/07 12:12:53;;;;;;;8.73;3.90;;;;;;;;;;5030907;28;20029;-75
2024/01/07 12:15:21;;;;;;;7.00;4.10;;;;;;;;;;5029025;28;20040;-76
2024/01/07 12:17:58;;;;;;;5.32;3.10;;;;;;;;;;5030148;28;20438;-76
2024/01/07 12:20:24;;;;;;;8.85;4.65;;;;;;;;;;5030942;28;20487;-76
2024/01/07 12:22:50;;;;;;;6.28;3.90;;;;;;;;;;5029547;28;20442;-75
2024/01/07 12:25:23;;;;;;;10.25;4.88;;;;;;;;;;5030998;28;20445;-76
2024/01/07 12:27:52;;;;;;;12.73;6.13;;;;;;;;;;5026502;28;20052;-75
2024/01/07 12:30:19;;;;;;;6.32;4.30;;;;;;;;;;5029647;28;20029;-77
2024/01/07 12:32:45;;;;;;;6.00;3.65;;;;;;;;;;5022412;28;20109;-75
2024/01/07 12:35:11;;;;;;;6.72;4.13;;;;;;;;;;5030494;28;20083;-76
2024/01/07 12:37:38;;;;;;;8.57;4.18;;;;;;;;;;5028576;28;20038;-76
2024/01/07 12:40:06;;;;;;;5.15;3.03;;;;;;;;;;5031569;28;20049;-76
2024/01/07 12:42:32;;;;;;;4.57;3.30;;;;;;;;;;5028087;28;20041;-76
2024/01/07 12:44:58;;;;;;;7.55;3.05;;;;;;;;;;5029154;28;21273;-76
2024/01/07 12:47:24;;;;;;;7.28;3.17;;;;;;;;;;5030019;28;20026;-77
2024/01/07 12:49:51;;;;;;;7.45;3.40;;;;;;;;;;5061715;28;20057;-76
2024/01/07 12:52:17;;;;;;;12.60;2.97;;;;;;;;;;5030442;28;20124;-76
2024/01/07 12:54:43;;;;;;;5.90;3.20;;;;;;;;;;5030320;28;20033;-75
2024/01/07 12:57:09;;;;;;;5.40;3.10;;;;;;;;;;5030412;28;20380;-76
2024/01/07 12:59:35;;;;;;;5.85;3.20;;;;;;;;;;5024791;28;20045;-76
2024/01/07 13:02:01;;;;;;;4.60;3.08;;;;;;;;;;5048098;28;20056;-76
2024/01/07 13:04:28;;;;;;;5.10;2.83;;;;;;;;;;5019814;28;20029;-76
2024/01/07 13:06:54;;;;;;;6.60;3.13;;;;;;;;;;5031319;28;20056;-76
2024/01/07 13:09:20;;;;;;;5.32;2.80;;;;;;;;;;5032329;28;20037;-75
2024/01/07 13:11:46;;;;;;;7.70;3.08;;;;;;;;;;5032153;28;20033;-76
2024/01/07 13:14:13;;;;;;;5.32;3.20;;;;;;;;;;5031033;28;20350;-76
2024/01/07 13:16:39;;;;;;;8.32;4.90;;;;;;;;;;5022439;28;20029;-76
2024/01/07 13:19:05;;;;;;;15.18;6.63;;;;;;;;;;5021911;28;20036;-76
2024/01/07 13:21:31;;;;;;;7.05;3.80;;;;;;;;;;5022083;28;20508;-76
2024/01/07 13:23:59;;;;;;;9.90;4.43;;;;;;;;;;5054588;28;20434;-76
2024/01/07 13:26:26;;;;;;;11.30;3.80;;;;;;;;;;5029482;28;20112;-77
2024/01/07 13:28:53;;;;;;;5.57;3.83;;;;;;;;;;5025616;28;20498;-76
2024/01/07 13:31:19;;;;;;;6.30;3.00;;;;;;;;;;5007135;28;20116;-76
2024/01/07 13:33:46;;;;;;;5.95;2.85;;;;;;;;;;5027753;28;20108;-76
2024/01/07 13:36:13;;;;;;;4.25;2.60;;;;;;;;;;5026960;28;20029;-75
2024/01/07 13:38:41;;;;;;;5.53;2.85;;;;;;;;;;5026192;28;20041;-76
2024/01/07 13:41:08;;;;;;;4.13;2.83;;;;;;;;;;5033456;28;20064;-76
2024/01/07 13:43:34;;;;;;;8.75;4.80;;;;;;;;;;5023874;28;20208;-74
2024/01/07 13:46:02;;;;;;;5.90;2.75;;;;;;;;;;5026372;28;20433;-76
2024/01/07 13:48:28;;;;;;;4.30;2.83;;;;;;;;;;5028489;28;20029;-75
2024/01/07 13:50:55;;;;;;;8.07;3.50;;;;;;;;;;5030433;28;20029;-75
2024/01/07 13:53:21;;;;;;;4.32;2.78;;;;;;;;;;5030391;28;20271;-75
2024/01/07 13:55:47;;;;;;;5.90;3.55;;;;;;;;;;5022266;28;20030;-76
2024/01/07 13:58:15;;;;;;;5.32;2.80;;;;;;;;;;5024395;28;20040;-75
2024/01/07 14:00:41;;;;;;;6.15;2.67;;;;;;;;;;5026914;28;20029;-75
2024/01/07 14:03:07;;;;;;;5.97;2.83;;;;;;;;;;5026306;28;20030;-75
2024/01/07 14:05:34;;;;;;;6.07;2.85;;;;;;;;;;5028753;28;20034;-75
2024/01/07 14:08:00;;;;;;;5.45;3.42;;;;;;;;;;5023915;28;20108;-75
2024/01/07 14:10:26;;;;;;;5.28;3.20;;;;;;;;;;5026354;28;20068;-77
2024/01/07 14:12:52;;;;;;;8.20;4.15;;;;;;;;;;5024434;28;20061;-76
2024/01/07 14:15:19;;;;;;;7.35;3.00;;;;;;;;;;5026614;28;20029;-76
2024/01/07 14:17:45;;;;;;;4.95;2.80;;;;;;;;;;5027105;28;20049;-75
2024/01/07 14:20:11;;;;;;;6.35;3.10;;;;;;;;;;5026717;28;20086;-76